sensor_id;sensor_type;location;lat;lon;timestamp;temperature;humidity
11855;DHT22;5987;53.140;8.904;2023-11-21T00:02:11;9.90;99.90
11855;DHT22;5987;53.140;8.904;2023-11-21T00:05:15;10.00;99.90
11855;DHT22;5987;53.140;8.904;2023-11-21T00:08:20;9.90;99.90
11855;DHT22;5987;53.140;8.904;2023-11-21T00:11:24;9.90;99.90
11855;DHT22;5987;53.140;8.904;2023-11-21T00:14:28;9.90;99.90
11855;DHT22;5987;53.140;8.904;2023-11-21T00:17:32;9.90;99.90
11855;DHT22;5987;53.140;8.904;2023-11-21T00:20:36;9.90;99.90
11855;DHT22;5987;53.140;8.904;2023-11-21T00:23:41;9.80;99.90
11855;DHT22;5987;53.140;8.904;2023-11-21T00:26:44;9.80;99.90
11855;DHT22;5987;53.140;8.904;2023-11-21T00:29:50;9.80;99.90
11855;DHT22;5987;53.140;8.904;2023-11-21T00:32:54;9.80;99.90
11855;DHT22;5987;53.140;8.904;2023-11-21T00:35:58;9.90;99.90
11855;DHT22;5987;53.140;8.904;2023-11-21T00:39:04;9.90;99.90
11855;DHT22;5987;53.140;8.904;2023-11-21T00:42:08;9.80;99.90
11855;DHT22;5987;53.140;8.904;2023-11-21T00:45:12;9.80;99.90
11855;DHT22;5987;53.140;8.904;2023-11-21T00:48:17;9.80;99.90
11855;DHT22;5987;53.140;8.904;2023-11-21T00:51:21;9.80;99.90
11855;DHT22;5987;53.140;8.904;2023-11-21T00:54:27;9.70;99.90
11855;DHT22;5987;53.140;8.904;2023-11-21T00:57:33;9.60;99.90
11855;DHT22;5987;53.140;8.904;2023-11-21T01:00:37;9.70;99.90
11855;DHT22;5987;53.140;8.904;2023-11-21T01:03:42;9.70;99.90
11855;DHT22;5987;53.140;8.904;2023-11-21T01:06:48;9.80;99.90
11855;DHT22;5987;53.140;8.904;2023-11-21T01:09:53;9.70;99.90
11855;DHT22;5987;53.140;8.904;2023-11-21T01:12:58;9.80;99.90
11855;DHT22;5987;53.140;8.904;2023-11-21T01:16:02;9.70;99.90
11855;DHT22;5987;53.140;8.904;2023-11-21T01:19:06;9.70;99.90
11855;DHT22;5987;53.140;8.904;2023-11-21T01:22:09;9.80;99.90
11855;DHT22;5987;53.140;8.904;2023-11-21T01:25:15;9.80;99.90
11855;DHT22;5987;53.140;8.904;2023-11-21T01:28:19;9.80;99.90
11855;DHT22;5987;53.140;8.904;2023-11-21T01:31:23;9.80;99.90
11855;DHT22;5987;53.140;8.904;2023-11-21T01:34:29;9.80;99.90
11855;DHT22;5987;53.140;8.904;2023-11-21T01:37:33;9.80;99.90
11855;DHT22;5987;53.140;8.904;2023-11-21T01:40:38;9.80;99.90
11855;DHT22;5987;53.140;8.904;2023-11-21T01:43:42;9.80;99.90
11855;DHT22;5987;53.140;8.904;2023-11-21T01:46:46;9.90;99.90
11855;DHT22;5987;53.140;8.904;2023-11-21T01:49:51;9.90;99.90
11855;DHT22;5987;53.140;8.904;2023-11-21T01:52:55;9.90;99.90
11855;DHT22;5987;53.140;8.904;2023-11-21T01:56:01;9.90;99.90
11855;DHT22;5987;53.140;8.904;2023-11-21T01:59:05;10.00;99.90
11855;DHT22;5987;53.140;8.904;2023-11-21T02:02:09;10.00;99.90
11855;DHT22;5987;53.140;8.904;2023-11-21T02:05:15;10.00;99.90
11855;DHT22;5987;53.140;8.904;2023-11-21T02:08:20;10.00;99.90
11855;DHT22;5987;53.140;8.904;2023-11-21T02:11:25;10.00;99.90
11855;DHT22;5987;53.140;8.904;2023-11-21T02:14:30;10.10;99.90
11855;DHT22;5987;53.140;8.904;2023-11-21T02:17:34;10.00;99.90
11855;DHT22;5987;53.140;8.904;2023-11-21T02:20:38;10.00;99.90
11855;DHT22;5987;53.140;8.904;2023-11-21T02:23:45;10.00;99.90
11855;DHT22;5987;53.140;8.904;2023-11-21T02:26:49;10.00;99.90
11855;DHT22;5987;53.140;8.904;2023-11-21T02:29:54;10.10;99.90
11855;DHT22;5987;53.140;8.904;2023-11-21T02:32:58;10.00;99.90
11855;DHT22;5987;53.140;8.904;2023-11-21T02:36:03;10.00;99.90
11855;DHT22;5987;53.140;8.904;2023-11-21T02:39:09;10.00;99.90
11855;DHT22;5987;53.140;8.904;2023-11-21T02:42:13;10.00;99.90
11855;DHT22;5987;53.140;8.904;2023-11-21T02:45:18;10.00;99.90
11855;DHT22;5987;53.140;8.904;2023-11-21T02:48:23;9.90;99.90
11855;DHT22;5987;53.140;8.904;2023-11-21T02:51:28;9.90;99.90
11855;DHT22;5987;53.140;8.904;2023-11-21T02:54:33;9.90;99.90
11855;DHT22;5987;53.140;8.904;2023-11-21T02:57:38;10.00;99.90
11855;DHT22;5987;53.140;8.904;2023-11-21T03:00:43;9.90;99.90
11855;DHT22;5987;53.140;8.904;2023-11-21T03:03:47;9.90;99.90
11855;DHT22;5987;53.140;8.904;2023-11-21T03:06:54;9.90;99.90
11855;DHT22;5987;53.140;8.904;2023-11-21T03:09:59;9.90;99.90
11855;DHT22;5987;53.140;8.904;2023-11-21T03:13:02;9.80;99.90
11855;DHT22;5987;53.140;8.904;2023-11-21T03:16:07;9.80;99.90
11855;DHT22;5987;53.140;8.904;2023-11-21T03:19:11;9.80;99.90
11855;DHT22;5987;53.140;8.904;2023-11-21T03:22:17;9.70;99.90
11855;DHT22;5987;53.140;8.904;2023-11-21T03:25:22;9.70;99.90
11855;DHT22;5987;53.140;8.904;2023-11-21T03:28:27;9.60;99.90
11855;DHT22;5987;53.140;8.904;2023-11-21T03:31:32;9.60;99.90
11855;DHT22;5987;53.140;8.904;2023-11-21T03:34:41;9.60;99.90
11855;DHT22;5987;53.140;8.904;2023-11-21T03:37:57;9.70;99.90
11855;DHT22;5987;53.140;8.904;2023-11-21T03:41:02;9.60;99.90
11855;DHT22;5987;53.140;8.904;2023-11-21T03:44:06;9.60;99.90
11855;DHT22;5987;53.140;8.904;2023-11-21T03:47:10;9.60;99.90
11855;DHT22;5987;53.140;8.904;2023-11-21T03:50:13;9.60;99.90
11855;DHT22;5987;53.140;8.904;2023-11-21T03:53:17;9.60;99.90
11855;DHT22;5987;53.140;8.904;2023-11-21T03:56:22;9.50;99.90
11855;DHT22;5987;53.140;8.904;2023-11-21T03:59:26;9.50;99.90
11855;DHT22;5987;53.140;8.904;2023-11-21T04:02:30;9.50;99.90
11855;DHT22;5987;53.140;8.904;2023-11-21T04:05:35;9.40;99.90
11855;DHT22;5987;53.140;8.904;2023-11-21T04:08:39;9.40;99.90
11855;DHT22;5987;53.140;8.904;2023-11-21T04:11:44;9.30;99.90
11855;DHT22;5987;53.140;8.904;2023-11-21T04:14:47;9.30;99.90
11855;DHT22;5987;53.140;8.904;2023-11-21T04:17:53;9.20;99.90
11855;DHT22;5987;53.140;8.904;2023-11-21T04:20:58;9.20;99.90
11855;DHT22;5987;53.140;8.904;2023-11-21T04:24:02;9.20;99.90
11855;DHT22;5987;53.140;8.904;2023-11-21T04:27:08;9.10;99.90
11855;DHT22;5987;53.140;8.904;2023-11-21T04:30:13;9.10;99.90
11855;DHT22;5987;53.140;8.904;2023-11-21T04:33:17;9.10;99.90
11855;DHT22;5987;53.140;8.904;2023-11-21T04:36:21;9.10;99.90
11855;DHT22;5987;53.140;8.904;2023-11-21T04:39:25;9.10;99.90
11855;DHT22;5987;53.140;8.904;2023-11-21T04:42:30;9.10;99.90
11855;DHT22;5987;53.140;8.904;2023-11-21T04:45:34;9.00;99.90
11855;DHT22;5987;53.140;8.904;2023-11-21T04:48:38;8.90;99.90
11855;DHT22;5987;53.140;8.904;2023-11-21T04:51:41;8.90;99.90
11855;DHT22;5987;53.140;8.904;2023-11-21T04:54:46;8.90;99.90
11855;DHT22;5987;53.140;8.904;2023-11-21T04:57:51;8.90;99.90
11855;DHT22;5987;53.140;8.904;2023-11-21T05:00:55;8.80;99.90
11855;DHT22;5987;53.140;8.904;2023-11-21T05:03:58;8.90;99.90
11855;DHT22;5987;53.140;8.904;2023-11-21T05:07:03;8.80;99.90
11855;DHT22;5987;53.140;8.904;2023-11-21T05:10:07;8.70;99.90
11855;DHT22;5987;53.140;8.904;2023-11-21T05:13:15;8.60;99.90
11855;DHT22;5987;53.140;8.904;2023-11-21T05:16:19;8.70;99.90
11855;DHT22;5987;53.140;8.904;2023-11-21T05:19:24;8.60;99.90
11855;DHT22;5987;53.140;8.904;2023-11-21T05:22:29;8.60;99.90
11855;DHT22;5987;53.140;8.904;2023-11-21T05:25:33;8.60;99.90
11855;DHT22;5987;53.140;8.904;2023-11-21T05:28:57;8.60;99.90
11855;DHT22;5987;53.140;8.904;2023-11-21T05:32:02;8.50;99.90
11855;DHT22;5987;53.140;8.904;2023-11-21T05:35:06;8.50;99.90
11855;DHT22;5987;53.140;8.904;2023-11-21T05:38:14;8.50;99.90
11855;DHT22;5987;53.140;8.904;2023-11-21T05:41:18;8.40;99.90
11855;DHT22;5987;53.140;8.904;2023-11-21T05:44:23;8.40;99.90
11855;DHT22;5987;53.140;8.904;2023-11-21T05:47:28;8.40;99.90
11855;DHT22;5987;53.140;8.904;2023-11-21T05:50:32;8.40;99.90
11855;DHT22;5987;53.140;8.904;2023-11-21T05:53:36;8.40;99.90
11855;DHT22;5987;53.140;8.904;2023-11-21T05:56:40;8.30;99.90
11855;DHT22;5987;53.140;8.904;2023-11-21T05:59:45;8.30;99.90
11855;DHT22;5987;53.140;8.904;2023-11-21T06:02:49;8.30;99.90
11855;DHT22;5987;53.140;8.904;2023-11-21T06:05:55;8.20;99.90
11855;DHT22;5987;53.140;8.904;2023-11-21T06:08:59;8.20;99.90
11855;DHT22;5987;53.140;8.904;2023-11-21T06:12:03;8.20;99.90
11855;DHT22;5987;53.140;8.904;2023-11-21T06:15:11;8.20;99.90
11855;DHT22;5987;53.140;8.904;2023-11-21T06:18:16;8.20;99.90
11855;DHT22;5987;53.140;8.904;2023-11-21T06:21:22;8.20;99.90
11855;DHT22;5987;53.140;8.904;2023-11-21T06:24:25;8.20;99.90
11855;DHT22;5987;53.140;8.904;2023-11-21T06:27:30;8.10;99.90
11855;DHT22;5987;53.140;8.904;2023-11-21T06:30:36;8.10;99.90
11855;DHT22;5987;53.140;8.904;2023-11-21T06:33:40;8.10;99.90
11855;DHT22;5987;53.140;8.904;2023-11-21T06:36:44;8.10;99.90
11855;DHT22;5987;53.140;8.904;2023-11-21T06:39:48;8.10;99.90
11855;DHT22;5987;53.140;8.904;2023-11-21T06:42:52;8.10;99.90
11855;DHT22;5987;53.140;8.904;2023-11-21T06:45:57;8.00;99.90
11855;DHT22;5987;53.140;8.904;2023-11-21T06:49:01;8.00;99.90
11855;DHT22;5987;53.140;8.904;2023-11-21T06:52:05;8.00;99.90
11855;DHT22;5987;53.140;8.904;2023-11-21T06:55:11;8.00;99.90
11855;DHT22;5987;53.140;8.904;2023-11-21T06:58:15;8.00;99.90
11855;DHT22;5987;53.140;8.904;2023-11-21T07:01:20;8.00;99.90
11855;DHT22;5987;53.140;8.904;2023-11-21T07:04:24;7.90;99.90
11855;DHT22;5987;53.140;8.904;2023-11-21T07:07:28;7.90;99.90
11855;DHT22;5987;53.140;8.904;2023-11-21T07:10:32;7.90;99.90
11855;DHT22;5987;53.140;8.904;2023-11-21T07:13:37;7.90;99.90
11855;DHT22;5987;53.140;8.904;2023-11-21T07:16:42;7.90;99.90
11855;DHT22;5987;53.140;8.904;2023-11-21T07:19:46;7.90;99.90
11855;DHT22;5987;53.140;8.904;2023-11-21T07:22:49;7.90;99.90
11855;DHT22;5987;53.140;8.904;2023-11-21T07:25:53;7.90;99.90
11855;DHT22;5987;53.140;8.904;2023-11-21T07:28:57;7.90;99.90
11855;DHT22;5987;53.140;8.904;2023-11-21T07:32:02;7.70;99.90
11855;DHT22;5987;53.140;8.904;2023-11-21T07:35:07;7.80;99.90
11855;DHT22;5987;53.140;8.904;2023-11-21T07:38:12;7.90;99.90
11855;DHT22;5987;53.140;8.904;2023-11-21T07:41:16;7.90;99.90
11855;DHT22;5987;53.140;8.904;2023-11-21T07:44:32;7.90;99.90
11855;DHT22;5987;53.140;8.904;2023-11-21T07:47:37;7.90;99.90
11855;DHT22;5987;53.140;8.904;2023-11-21T07:50:41;8.00;99.90
11855;DHT22;5987;53.140;8.904;2023-11-21T07:53:45;7.90;99.90
11855;DHT22;5987;53.140;8.904;2023-11-21T07:56:49;7.90;99.90
11855;DHT22;5987;53.140;8.904;2023-11-21T07:59:52;8.00;99.90
11855;DHT22;5987;53.140;8.904;2023-11-21T08:02:58;8.00;99.90
11855;DHT22;5987;53.140;8.904;2023-11-21T08:06:03;8.00;99.90
11855;DHT22;5987;53.140;8.904;2023-11-21T08:09:07;8.00;99.90
11855;DHT22;5987;53.140;8.904;2023-11-21T08:12:12;8.00;99.90
11855;DHT22;5987;53.140;8.904;2023-11-21T08:15:16;8.00;99.90
11855;DHT22;5987;53.140;8.904;2023-11-21T08:18:21;8.00;99.90
11855;DHT22;5987;53.140;8.904;2023-11-21T08:21:26;8.00;99.90
11855;DHT22;5987;53.140;8.904;2023-11-21T08:24:31;8.10;99.90
11855;DHT22;5987;53.140;8.904;2023-11-21T08:27:35;8.10;99.90
11855;DHT22;5987;53.140;8.904;2023-11-21T08:30:38;8.20;99.90
11855;DHT22;5987;53.140;8.904;2023-11-21T08:33:45;8.10;99.90
11855;DHT22;5987;53.140;8.904;2023-11-21T08:36:49;8.10;99.90
11855;DHT22;5987;53.140;8.904;2023-11-21T08:39:53;8.10;99.90
11855;DHT22;5987;53.140;8.904;2023-11-21T08:42:57;8.10;99.90
11855;DHT22;5987;53.140;8.904;2023-11-21T08:46:01;8.20;99.90
11855;DHT22;5987;53.140;8.904;2023-11-21T08:49:06;8.20;99.90
11855;DHT22;5987;53.140;8.904;2023-11-21T08:52:10;8.20;99.90
11855;DHT22;5987;53.140;8.904;2023-11-21T08:55:14;8.20;99.90
11855;DHT22;5987;53.140;8.904;2023-11-21T08:58:18;8.20;99.90
11855;DHT22;5987;53.140;8.904;2023-11-21T09:01:22;8.30;99.90
11855;DHT22;5987;53.140;8.904;2023-11-21T09:04:28;8.30;99.90
11855;DHT22;5987;53.140;8.904;2023-11-21T09:07:32;8.30;99.90
11855;DHT22;5987;53.140;8.904;2023-11-21T09:10:36;8.40;99.90
11855;DHT22;5987;53.140;8.904;2023-11-21T09:13:41;8.40;99.90
11855;DHT22;5987;53.140;8.904;2023-11-21T09:16:45;8.50;99.90
11855;DHT22;5987;53.140;8.904;2023-11-21T09:19:50;8.60;99.90
11855;DHT22;5987;53.140;8.904;2023-11-21T09:22:54;8.70;99.90
11855;DHT22;5987;53.140;8.904;2023-11-21T09:25:58;8.80;99.90
11855;DHT22;5987;53.140;8.904;2023-11-21T09:29:03;8.70;99.90
11855;DHT22;5987;53.140;8.904;2023-11-21T09:32:07;8.80;99.90
11855;DHT22;5987;53.140;8.904;2023-11-21T09:35:14;8.80;99.90
11855;DHT22;5987;53.140;8.904;2023-11-21T09:38:19;8.80;99.90
11855;DHT22;5987;53.140;8.904;2023-11-21T09:41:27;8.70;99.90
11855;DHT22;5987;53.140;8.904;2023-11-21T09:44:48;8.70;99.90
11855;DHT22;5987;53.140;8.904;2023-11-21T09:48:01;8.70;99.90
11855;DHT22;5987;53.140;8.904;2023-11-21T09:51:08;8.70;99.90
11855;DHT22;5987;53.140;8.904;2023-11-21T09:54:15;8.70;99.90
11855;DHT22;5987;53.140;8.904;2023-11-21T09:57:21;8.80;99.90
11855;DHT22;5987;53.140;8.904;2023-11-21T10:00:27;8.80;99.90
11855;DHT22;5987;53.140;8.904;2023-11-21T10:03:35;8.80;99.90
11855;DHT22;5987;53.140;8.904;2023-11-21T10:06:41;8.90;99.90
11855;DHT22;5987;53.140;8.904;2023-11-21T10:09:48;8.90;99.90
11855;DHT22;5987;53.140;8.904;2023-11-21T10:12:56;8.80;99.90
11855;DHT22;5987;53.140;8.904;2023-11-21T10:16:04;8.80;99.90
11855;DHT22;5987;53.140;8.904;2023-11-21T10:19:11;8.80;99.90
11855;DHT22;5987;53.140;8.904;2023-11-21T10:22:17;8.90;99.90
11855;DHT22;5987;53.140;8.904;2023-11-21T10:25:21;9.00;99.90
11855;DHT22;5987;53.140;8.904;2023-11-21T10:28:25;9.10;99.90
11855;DHT22;5987;53.140;8.904;2023-11-21T10:31:30;9.10;99.90
11855;DHT22;5987;53.140;8.904;2023-11-21T10:34:34;9.10;99.90
11855;DHT22;5987;53.140;8.904;2023-11-21T10:37:40;9.20;99.90
11855;DHT22;5987;53.140;8.904;2023-11-21T10:40:44;9.20;99.90
11855;DHT22;5987;53.140;8.904;2023-11-21T10:43:53;9.20;99.90
11855;DHT22;5987;53.140;8.904;2023-11-21T10:47:00;9.20;99.90
11855;DHT22;5987;53.140;8.904;2023-11-21T10:50:05;9.10;99.90
11855;DHT22;5987;53.140;8.904;2023-11-21T10:53:14;9.10;99.90
11855;DHT22;5987;53.140;8.904;2023-11-21T10:56:19;9.00;99.90
11855;DHT22;5987;53.140;8.904;2023-11-21T10:59:29;8.90;99.90
11855;DHT22;5987;53.140;8.904;2023-11-21T11:02:35;9.10;99.90
11855;DHT22;5987;53.140;8.904;2023-11-21T11:05:41;9.20;99.90
11855;DHT22;5987;53.140;8.904;2023-11-21T11:08:56;9.20;99.90
11855;DHT22;5987;53.140;8.904;2023-11-21T11:12:01;9.30;99.90
11855;DHT22;5987;53.140;8.904;2023-11-21T11:15:22;9.30;99.90
11855;DHT22;5987;53.140;8.904;2023-11-21T11:18:27;9.40;99.90
11855;DHT22;5987;53.140;8.904;2023-11-21T11:21:42;9.40;99.90
11855;DHT22;5987;53.140;8.904;2023-11-21T11:25:09;9.40;99.90
11855;DHT22;5987;53.140;8.904;2023-11-21T11:28:29;9.30;99.90
11855;DHT22;5987;53.140;8.904;2023-11-21T11:31:51;9.30;99.90
11855;DHT22;5987;53.140;8.904;2023-11-21T11:35:12;9.20;99.90
11855;DHT22;5987;53.140;8.904;2023-11-21T11:38:28;9.20;99.90
11855;DHT22;5987;53.140;8.904;2023-11-21T11:41:36;9.10;99.90
11855;DHT22;5987;53.140;8.904;2023-11-21T11:44:49;9.10;99.90
11855;DHT22;5987;53.140;8.904;2023-11-21T11:48:00;9.10;99.90
11855;DHT22;5987;53.140;8.904;2023-11-21T11:51:09;9.10;99.90
11855;DHT22;5987;53.140;8.904;2023-11-21T11:54:25;9.10;99.90
11855;DHT22;5987;53.140;8.904;2023-11-21T11:57:40;9.10;99.90
11855;DHT22;5987;53.140;8.904;2023-11-21T12:00:45;9.20;99.90
11855;DHT22;5987;53.140;8.904;2023-11-21T12:04:23;9.30;99.90
11855;DHT22;5987;53.140;8.904;2023-11-21T12:07:43;9.20;99.90
11855;DHT22;5987;53.140;8.904;2023-11-21T12:10:51;9.10;99.90
11855;DHT22;5987;53.140;8.904;2023-11-21T12:13:58;9.00;99.90
11855;DHT22;5987;53.140;8.904;2023-11-21T12:17:03;9.10;99.90
11855;DHT22;5987;53.140;8.904;2023-11-21T12:20:08;9.20;99.90
11855;DHT22;5987;53.140;8.904;2023-11-21T12:23:16;9.20;99.90
11855;DHT22;5987;53.140;8.904;2023-11-21T12:26:23;9.10;99.90
11855;DHT22;5987;53.140;8.904;2023-11-21T12:29:28;9.10;99.90
11855;DHT22;5987;53.140;8.904;2023-11-21T12:32:33;9.10;99.90
11855;DHT22;5987;53.140;8.904;2023-11-21T12:35:38;9.10;99.90
11855;DHT22;5987;53.140;8.904;2023-11-21T12:38:42;9.10;99.90
11855;DHT22;5987;53.140;8.904;2023-11-21T12:41:46;9.10;99.90
11855;DHT22;5987;53.140;8.904;2023-11-21T12:45:09;9.20;99.90
11855;DHT22;5987;53.140;8.904;2023-11-21T12:48:23;9.10;99.90
11855;DHT22;5987;53.140;8.904;2023-11-21T12:51:27;9.20;99.90
11855;DHT22;5987;53.140;8.904;2023-11-21T12:54:34;9.10;99.90
11855;DHT22;5987;53.140;8.904;2023-11-21T12:57:41;9.10;99.90
11855;DHT22;5987;53.140;8.904;2023-11-21T13:00:49;9.10;99.90
11855;DHT22;5987;53.140;8.904;2023-11-21T13:03:53;9.00;99.90
11855;DHT22;5987;53.140;8.904;2023-11-21T13:07:03;8.80;99.90
11855;DHT22;5987;53.140;8.904;2023-11-21T13:10:09;8.60;99.90
11855;DHT22;5987;53.140;8.904;2023-11-21T13:13:14;8.50;99.90
11855;DHT22;5987;53.140;8.904;2023-11-21T13:16:27;8.40;99.90
11855;DHT22;5987;53.140;8.904;2023-11-21T13:19:31;8.30;99.90
11855;DHT22;5987;53.140;8.904;2023-11-21T13:22:34;8.30;99.90
11855;DHT22;5987;53.140;8.904;2023-11-21T13:25:38;8.30;99.90
11855;DHT22;5987;53.140;8.904;2023-11-21T13:28:43;8.30;99.90
11855;DHT22;5987;53.140;8.904;2023-11-21T13:31:50;8.20;99.90
11855;DHT22;5987;53.140;8.904;2023-11-21T13:34:55;8.30;99.90
11855;DHT22;5987;53.140;8.904;2023-11-21T13:38:05;8.20;99.90
11855;DHT22;5987;53.140;8.904;2023-11-21T13:41:11;8.30;99.90
11855;DHT22;5987;53.140;8.904;2023-11-21T13:44:16;8.30;99.90
11855;DHT22;5987;53.140;8.904;2023-11-21T13:47:30;8.40;99.90
11855;DHT22;5987;53.140;8.904;2023-11-21T13:50:36;8.40;99.90
11855;DHT22;5987;53.140;8.904;2023-11-21T13:53:41;8.40;99.90
11855;DHT22;5987;53.140;8.904;2023-11-21T13:56:46;8.30;99.90
11855;DHT22;5987;53.140;8.904;2023-11-21T13:59:52;8.30;99.90
11855;DHT22;5987;53.140;8.904;2023-11-21T14:02:57;8.20;99.90
11855;DHT22;5987;53.140;8.904;2023-11-21T14:06:03;8.20;99.90
11855;DHT22;5987;53.140;8.904;2023-11-21T14:09:16;8.10;99.90
11855;DHT22;5987;53.140;8.904;2023-11-21T14:12:24;8.10;99.90
11855;DHT22;5987;53.140;8.904;2023-11-21T14:15:28;8.10;99.90
11855;DHT22;5987;53.140;8.904;2023-11-21T14:18:34;8.10;99.90
11855;DHT22;5987;53.140;8.904;2023-11-21T14:21:52;8.00;99.90
11855;DHT22;5987;53.140;8.904;2023-11-21T14:24:56;8.00;99.90
11855;DHT22;5987;53.140;8.904;2023-11-21T14:28:02;8.00;99.90
11855;DHT22;5987;53.140;8.904;2023-11-21T14:31:07;8.00;99.90
11855;DHT22;5987;53.140;8.904;2023-11-21T14:34:16;8.00;99.90
11855;DHT22;5987;53.140;8.904;2023-11-21T14:37:24;8.00;99.90
11855;DHT22;5987;53.140;8.904;2023-11-21T14:40:27;8.00;99.90
11855;DHT22;5987;53.140;8.904;2023-11-21T14:43:35;8.00;99.90
11855;DHT22;5987;53.140;8.904;2023-11-21T14:46:40;8.00;99.90
11855;DHT22;5987;53.140;8.904;2023-11-21T14:49:49;8.00;99.90
11855;DHT22;5987;53.140;8.904;2023-11-21T14:52:56;7.90;99.90
11855;DHT22;5987;53.140;8.904;2023-11-21T14:56:01;7.90;99.90
11855;DHT22;5987;53.140;8.904;2023-11-21T14:59:06;7.90;99.90
11855;DHT22;5987;53.140;8.904;2023-11-21T15:02:14;7.80;99.90
11855;DHT22;5987;53.140;8.904;2023-11-21T15:05:22;7.80;99.90
11855;DHT22;5987;53.140;8.904;2023-11-21T15:08:26;7.80;99.90
11855;DHT22;5987;53.140;8.904;2023-11-21T15:11:34;7.80;99.90
11855;DHT22;5987;53.140;8.904;2023-11-21T15:14:36;7.70;99.90
11855;DHT22;5987;53.140;8.904;2023-11-21T15:17:40;7.70;99.90
11855;DHT22;5987;53.140;8.904;2023-11-21T15:20:47;7.70;99.90
11855;DHT22;5987;53.140;8.904;2023-11-21T15:23:51;7.60;99.90
11855;DHT22;5987;53.140;8.904;2023-11-21T15:26:55;7.70;99.90
11855;DHT22;5987;53.140;8.904;2023-11-21T15:29:58;7.70;99.90
11855;DHT22;5987;53.140;8.904;2023-11-21T15:33:02;7.60;99.90
11855;DHT22;5987;53.140;8.904;2023-11-21T15:36:09;7.60;99.90
11855;DHT22;5987;53.140;8.904;2023-11-21T15:39:13;7.60;99.90
11855;DHT22;5987;53.140;8.904;2023-11-21T15:42:17;7.50;99.90
11855;DHT22;5987;53.140;8.904;2023-11-21T15:45:21;7.50;99.90
11855;DHT22;5987;53.140;8.904;2023-11-21T15:48:28;7.50;99.90
11855;DHT22;5987;53.140;8.904;2023-11-21T15:51:34;7.50;99.90
11855;DHT22;5987;53.140;8.904;2023-11-21T15:54:38;7.50;99.90
11855;DHT22;5987;53.140;8.904;2023-11-21T15:57:43;7.50;99.90
11855;DHT22;5987;53.140;8.904;2023-11-21T16:00:48;7.40;99.90
11855;DHT22;5987;53.140;8.904;2023-11-21T16:03:51;7.40;99.90
11855;DHT22;5987;53.140;8.904;2023-11-21T16:06:58;7.40;99.90
11855;DHT22;5987;53.140;8.904;2023-11-21T16:10:02;7.30;99.90
11855;DHT22;5987;53.140;8.904;2023-11-21T16:13:08;7.30;99.90
11855;DHT22;5987;53.140;8.904;2023-11-21T16:16:12;7.30;99.90
11855;DHT22;5987;53.140;8.904;2023-11-21T16:19:19;7.20;99.90
11855;DHT22;5987;53.140;8.904;2023-11-21T16:22:24;7.20;99.90
11855;DHT22;5987;53.140;8.904;2023-11-21T16:25:30;7.10;99.90
11855;DHT22;5987;53.140;8.904;2023-11-21T16:28:34;6.60;99.90
11855;DHT22;5987;53.140;8.904;2023-11-21T16:31:37;7.20;99.90
11855;DHT22;5987;53.140;8.904;2023-11-21T16:34:41;7.20;99.90
11855;DHT22;5987;53.140;8.904;2023-11-21T16:37:46;7.20;99.90
11855;DHT22;5987;53.140;8.904;2023-11-21T16:40:51;7.20;99.90
11855;DHT22;5987;53.140;8.904;2023-11-21T16:43:55;7.20;99.90
11855;DHT22;5987;53.140;8.904;2023-11-21T16:46:59;7.10;99.90
11855;DHT22;5987;53.140;8.904;2023-11-21T16:50:07;7.10;99.90
11855;DHT22;5987;53.140;8.904;2023-11-21T16:53:13;7.10;99.90
11855;DHT22;5987;53.140;8.904;2023-11-21T16:56:17;7.10;99.90
11855;DHT22;5987;53.140;8.904;2023-11-21T16:59:21;7.10;99.90
11855;DHT22;5987;53.140;8.904;2023-11-21T17:02:25;7.10;99.90
11855;DHT22;5987;53.140;8.904;2023-11-21T17:05:29;7.10;99.90
11855;DHT22;5987;53.140;8.904;2023-11-21T17:08:35;7.10;99.90
11855;DHT22;5987;53.140;8.904;2023-11-21T17:11:38;7.10;99.90
11855;DHT22;5987;53.140;8.904;2023-11-21T17:14:42;7.10;99.90
11855;DHT22;5987;53.140;8.904;2023-11-21T17:17:48;7.00;99.90
11855;DHT22;5987;53.140;8.904;2023-11-21T17:20:53;7.10;99.90
11855;DHT22;5987;53.140;8.904;2023-11-21T17:23:59;7.00;99.90
11855;DHT22;5987;53.140;8.904;2023-11-21T17:27:04;7.00;99.90
11855;DHT22;5987;53.140;8.904;2023-11-21T17:30:09;7.10;99.90
11855;DHT22;5987;53.140;8.904;2023-11-21T17:33:14;7.00;99.90
11855;DHT22;5987;53.140;8.904;2023-11-21T17:36:17;7.00;99.90
11855;DHT22;5987;53.140;8.904;2023-11-21T17:39:23;7.00;99.90
11855;DHT22;5987;53.140;8.904;2023-11-21T17:42:26;7.00;99.90
11855;DHT22;5987;53.140;8.904;2023-11-21T17:45:31;6.90;99.90
11855;DHT22;5987;53.140;8.904;2023-11-21T17:48:35;7.00;99.90
11855;DHT22;5987;53.140;8.904;2023-11-21T17:51:42;7.00;99.90
11855;DHT22;5987;53.140;8.904;2023-11-21T17:54:47;7.00;99.90
11855;DHT22;5987;53.140;8.904;2023-11-21T17:57:51;7.00;99.90
11855;DHT22;5987;53.140;8.904;2023-11-21T18:00:55;7.00;99.90
11855;DHT22;5987;53.140;8.904;2023-11-21T18:03:59;7.00;99.90
11855;DHT22;5987;53.140;8.904;2023-11-21T18:07:03;7.00;99.90
11855;DHT22;5987;53.140;8.904;2023-11-21T18:10:09;7.00;99.90
11855;DHT22;5987;53.140;8.904;2023-11-21T18:13:14;7.00;99.90
11855;DHT22;5987;53.140;8.904;2023-11-21T18:16:18;6.90;99.90
11855;DHT22;5987;53.140;8.904;2023-11-21T18:19:22;6.90;99.90
11855;DHT22;5987;53.140;8.904;2023-11-21T18:22:26;6.90;99.90
11855;DHT22;5987;53.140;8.904;2023-11-21T18:25:31;6.90;99.90
11855;DHT22;5987;53.140;8.904;2023-11-21T18:28:36;6.90;99.90
11855;DHT22;5987;53.140;8.904;2023-11-21T18:31:42;7.00;99.90
11855;DHT22;5987;53.140;8.904;2023-11-21T18:34:45;7.00;99.90
11855;DHT22;5987;53.140;8.904;2023-11-21T18:37:50;7.00;99.90
11855;DHT22;5987;53.140;8.904;2023-11-21T18:40:55;6.90;99.90
11855;DHT22;5987;53.140;8.904;2023-11-21T18:43:59;6.90;99.90
11855;DHT22;5987;53.140;8.904;2023-11-21T18:47:04;6.90;99.90
11855;DHT22;5987;53.140;8.904;2023-11-21T18:50:09;6.90;99.90
11855;DHT22;5987;53.140;8.904;2023-11-21T18:53:19;6.90;99.90
11855;DHT22;5987;53.140;8.904;2023-11-21T18:56:24;6.90;99.90
11855;DHT22;5987;53.140;8.904;2023-11-21T18:59:31;6.80;99.90
11855;DHT22;5987;53.140;8.904;2023-11-21T19:02:35;6.80;99.90
11855;DHT22;5987;53.140;8.904;2023-11-21T19:05:39;6.70;99.90
11855;DHT22;5987;53.140;8.904;2023-11-21T19:08:43;6.80;99.90
11855;DHT22;5987;53.140;8.904;2023-11-21T19:11:48;6.70;99.90
11855;DHT22;5987;53.140;8.904;2023-11-21T19:14:52;6.70;99.90
11855;DHT22;5987;53.140;8.904;2023-11-21T19:17:56;6.70;99.90
11855;DHT22;5987;53.140;8.904;2023-11-21T19:21:00;6.60;99.90
11855;DHT22;5987;53.140;8.904;2023-11-21T19:24:06;6.60;99.90
11855;DHT22;5987;53.140;8.904;2023-11-21T19:27:12;6.60;99.90
11855;DHT22;5987;53.140;8.904;2023-11-21T19:30:15;6.50;99.90
11855;DHT22;5987;53.140;8.904;2023-11-21T19:33:20;6.40;99.90
11855;DHT22;5987;53.140;8.904;2023-11-21T19:36:25;6.30;99.90
11855;DHT22;5987;53.140;8.904;2023-11-21T19:39:29;6.20;99.90
11855;DHT22;5987;53.140;8.904;2023-11-21T19:42:34;6.10;99.90
11855;DHT22;5987;53.140;8.904;2023-11-21T19:45:40;6.10;99.90
11855;DHT22;5987;53.140;8.904;2023-11-21T19:48:44;6.00;99.90
11855;DHT22;5987;53.140;8.904;2023-11-21T19:51:54;5.90;99.90
11855;DHT22;5987;53.140;8.904;2023-11-21T19:54:58;5.80;99.90
11855;DHT22;5987;53.140;8.904;2023-11-21T19:58:03;5.80;99.90
11855;DHT22;5987;53.140;8.904;2023-11-21T20:01:09;5.70;99.90
11855;DHT22;5987;53.140;8.904;2023-11-21T20:04:13;5.60;99.90
11855;DHT22;5987;53.140;8.904;2023-11-21T20:07:17;5.60;99.90
11855;DHT22;5987;53.140;8.904;2023-11-21T20:10:23;5.50;99.90
11855;DHT22;5987;53.140;8.904;2023-11-21T20:13:28;5.50;99.90